createdAt,value
2018-09-04T00:02:11.639Z,15.37
2018-09-04T00:04:39.027Z,15.45
2018-09-04T00:07:06.405Z,15.56
2018-09-04T00:09:33.750Z,15.58
2018-09-04T00:12:01.090Z,15.53
2018-09-04T00:14:28.455Z,15.48
2018-09-04T00:16:55.784Z,15.33
2018-09-04T00:19:23.061Z,15.27
2018-09-04T00:21:50.327Z,15.25
2018-09-04T00:24:17.578Z,15.16
2018-09-04T00:26:44.891Z,15.19
2018-09-04T00:29:12.174Z,15.22
2018-09-04T00:31:39.564Z,15.14
2018-09-04T00:34:06.769Z,15.04
2018-09-04T00:36:34.086Z,14.94
2018-09-04T00:39:01.353Z,14.92
2018-09-04T00:41:28.623Z,14.95
2018-09-04T00:43:55.888Z,14.96
2018-09-04T00:46:23.172Z,14.90
2018-09-04T00:48:50.437Z,14.79
2018-09-04T00:51:17.667Z,14.78
2018-09-04T00:53:45.058Z,14.82
2018-09-04T00:56:12.371Z,14.81
2018-09-04T00:58:39.633Z,14.78
2018-09-04T01:01:07.189Z,14.77
2018-09-04T01:03:34.458Z,14.75
2018-09-04T01:06:03.312Z,14.77
2018-09-04T01:08:30.613Z,14.84
2018-09-04T01:10:57.988Z,14.82
2018-09-04T01:13:25.330Z,14.75
2018-09-04T01:15:52.601Z,14.77
2018-09-04T01:18:19.866Z,14.73
2018-09-04T01:20:47.166Z,14.74
2018-09-04T01:23:14.405Z,14.73
2018-09-04T01:25:41.636Z,14.65
2018-09-04T01:28:09.406Z,14.63
2018-09-04T01:30:36.685Z,14.62
2018-09-04T01:33:04.218Z,14.65
2018-09-04T01:35:31.607Z,14.67
2018-09-04T01:37:58.889Z,14.61
2018-09-04T01:40:26.107Z,14.54
2018-09-04T01:42:53.402Z,14.58
2018-09-04T01:45:20.817Z,14.52
2018-09-04T01:47:48.272Z,14.55
2018-09-04T01:50:15.582Z,14.56
2018-09-04T01:52:42.826Z,14.53
2018-09-04T01:55:10.149Z,14.51
2018-09-04T01:59:57.180Z,14.40
2018-09-04T02:02:24.479Z,14.37
2018-09-04T02:04:51.735Z,14.30
2018-09-04T02:07:19.037Z,14.34
2018-09-04T02:09:46.345Z,14.31
2018-09-04T02:12:13.654Z,14.37
2018-09-04T02:14:40.987Z,14.30
2018-09-04T02:17:08.471Z,14.27
2018-09-04T02:19:35.747Z,14.23
2018-09-04T02:22:03.083Z,14.23
2018-09-04T02:24:30.412Z,14.23
2018-09-04T02:26:57.676Z,14.18
2018-09-04T02:29:24.944Z,14.19
2018-09-04T02:31:52.263Z,14.23
2018-09-04T02:34:19.554Z,14.20
2018-09-04T02:36:46.846Z,14.14
2018-09-04T02:39:14.168Z,14.09
2018-09-04T02:41:41.547Z,14.10
2018-09-04T02:44:08.969Z,14.07
2018-09-04T02:46:36.581Z,14.06
2018-09-04T02:49:03.936Z,14.09
2018-09-04T02:51:31.244Z,14.07
2018-09-04T02:53:58.551Z,14.03
2018-09-04T02:56:25.842Z,13.93
2018-09-04T02:58:59.475Z,13.85
2018-09-04T03:01:26.917Z,13.70
2018-09-04T03:03:54.140Z,13.80
2018-09-04T03:06:21.429Z,13.86
2018-09-04T03:08:48.679Z,13.81
2018-09-04T03:11:16.054Z,13.84
2018-09-04T03:13:43.354Z,13.82
2018-09-04T03:16:10.549Z,13.85
2018-09-04T03:18:37.882Z,13.82
2018-09-04T03:23:57.723Z,13.89
2018-09-04T03:26:25.045Z,13.83
2018-09-04T03:28:52.242Z,13.79
2018-09-04T03:31:19.519Z,13.77
2018-09-04T03:33:46.866Z,13.72
2018-09-04T03:36:14.175Z,13.71
2018-09-04T03:38:41.401Z,13.62
2018-09-04T03:41:08.713Z,13.59
2018-09-04T03:43:35.972Z,13.63
2018-09-04T03:46:03.259Z,13.59
2018-09-04T03:48:30.563Z,13.43
2018-09-04T03:50:57.814Z,13.39
2018-09-04T03:53:25.052Z,13.37
2018-09-04T03:55:52.305Z,13.39
2018-09-04T03:58:19.592Z,13.40
2018-09-04T04:00:46.831Z,13.38
2018-09-04T04:03:14.129Z,13.40
2018-09-04T04:05:41.387Z,13.45
2018-09-04T04:08:08.667Z,13.44
2018-09-04T04:10:35.967Z,13.52
2018-09-04T04:13:03.624Z,13.51
2018-09-04T04:15:31.134Z,13.51
2018-09-04T04:17:58.435Z,13.49
2018-09-04T04:20:25.771Z,13.49
2018-09-04T04:22:53.077Z,13.49
2018-09-04T04:25:20.344Z,13.51
2018-09-04T04:27:47.643Z,13.57
2018-09-04T04:30:14.978Z,13.44
2018-09-04T04:32:42.373Z,13.46
2018-09-04T04:35:09.754Z,13.40
2018-09-04T04:37:36.974Z,13.45
2018-09-04T04:40:04.853Z,13.40
2018-09-04T04:42:32.072Z,13.40
2018-09-04T04:44:59.307Z,13.43
2018-09-04T04:47:32.198Z,13.46
2018-09-04T04:49:59.455Z,13.47
2018-09-04T04:52:26.798Z,13.57
2018-09-04T04:54:54.080Z,13.61
2018-09-04T04:57:21.310Z,13.45
2018-09-04T04:59:48.557Z,13.41
2018-09-04T05:02:15.806Z,13.43
2018-09-04T05:04:43.123Z,13.41
2018-09-04T05:07:10.398Z,13.49
2018-09-04T05:09:37.706Z,13.52
2018-09-04T05:12:05.299Z,13.46
2018-09-04T05:14:32.540Z,13.45
2018-09-04T05:16:59.806Z,13.42
2018-09-04T05:19:27.062Z,13.32
2018-09-04T05:21:54.321Z,13.42
2018-09-04T05:24:21.650Z,13.46
2018-09-04T05:26:48.904Z,13.50
2018-09-04T05:29:16.563Z,13.48
2018-09-04T05:31:47.201Z,13.29
2018-09-04T05:34:14.516Z,13.56
2018-09-04T05:36:41.839Z,13.57
2018-09-04T05:39:09.745Z,13.59
2018-09-04T05:41:37.049Z,13.65
2018-09-04T05:44:04.423Z,13.67
2018-09-04T05:46:37.451Z,13.63
2018-09-04T05:49:04.938Z,13.55
2018-09-04T05:51:32.244Z,13.60
2018-09-04T05:53:59.889Z,13.68
2018-09-04T05:56:27.218Z,13.74
2018-09-04T05:58:54.490Z,13.82
2018-09-04T06:01:21.902Z,13.88
2018-09-04T06:03:49.173Z,13.92
2018-09-04T06:06:16.521Z,14.01
2018-09-04T06:08:43.818Z,14.02
2018-09-04T06:11:11.108Z,14.15
2018-09-04T06:13:38.426Z,14.21
2018-09-04T06:16:05.763Z,14.14
2018-09-04T06:18:33.017Z,14.24
2018-09-04T06:21:00.310Z,14.37
2018-09-04T06:23:27.748Z,14.42
2018-09-04T06:25:55.013Z,14.50
2018-09-04T06:28:22.303Z,14.47
2018-09-04T06:30:49.665Z,14.53
2018-09-04T06:33:17.050Z,14.74
2018-09-04T06:35:44.332Z,14.83
2018-09-04T06:38:11.635Z,15.01
2018-09-04T06:40:38.917Z,14.97
2018-09-04T06:43:06.186Z,15.15
2018-09-04T06:45:33.523Z,15.26
2018-09-04T06:48:00.833Z,15.28
2018-09-04T06:50:28.115Z,15.30
2018-09-04T06:52:55.338Z,15.37
2018-09-04T06:55:22.590Z,15.23
2018-09-04T06:57:49.853Z,15.18
2018-09-04T07:00:17.091Z,15.30
2018-09-04T07:02:44.354Z,15.67
2018-09-04T07:05:12.051Z,16.10
2018-09-04T07:07:39.419Z,16.72
2018-09-04T07:10:06.939Z,17.33
2018-09-04T07:12:34.212Z,17.81
2018-09-04T07:15:01.655Z,17.92
2018-09-04T07:17:28.894Z,17.97
2018-09-04T07:19:56.229Z,17.82
2018-09-04T07:22:23.525Z,17.73
2018-09-04T07:24:50.811Z,17.72
2018-09-04T07:27:18.099Z,17.67
2018-09-04T07:29:45.389Z,17.74
2018-09-04T07:32:12.676Z,17.78
2018-09-04T07:34:39.966Z,17.88
2018-09-04T07:37:07.209Z,18.11
2018-09-04T07:39:34.535Z,18.23
2018-09-04T07:42:01.909Z,18.19
2018-09-04T07:44:29.132Z,18.51
2018-09-04T07:46:56.401Z,18.77
2018-09-04T07:49:23.697Z,19.57
2018-09-04T07:51:50.972Z,20.19
2018-09-04T07:54:18.248Z,20.37
2018-09-04T07:56:45.522Z,20.35
2018-09-04T07:59:12.812Z,20.62
2018-09-04T08:01:40.064Z,20.39
2018-09-04T08:04:07.350Z,19.91
2018-09-04T08:06:34.613Z,19.48
2018-09-04T08:09:01.935Z,19.20
2018-09-04T08:11:29.313Z,19.45
2018-09-04T08:13:56.541Z,20.11
2018-09-04T08:16:23.866Z,20.78
2018-09-04T08:18:51.215Z,21.28
2018-09-04T08:21:18.501Z,21.77
2018-09-04T08:23:45.780Z,22.19
2018-09-04T08:26:13.077Z,22.48
2018-09-04T08:28:40.304Z,22.44
2018-09-04T08:31:07.562Z,22.43
2018-09-04T08:33:34.864Z,22.61
2018-09-04T08:36:02.152Z,22.72
2018-09-04T08:38:29.413Z,22.41
2018-09-04T08:40:56.687Z,22.43
2018-09-04T08:43:24.025Z,22.35
2018-09-04T08:45:51.408Z,22.46
2018-09-04T08:48:20.780Z,22.48
2018-09-04T08:50:49.972Z,22.60
2018-09-04T08:53:18.446Z,22.84
2018-09-04T08:55:45.762Z,23.03
2018-09-04T08:58:13.058Z,23.07
2018-09-04T09:00:40.432Z,22.96
2018-09-04T09:03:08.092Z,22.95
2018-09-04T09:05:35.675Z,22.82
2018-09-04T09:08:02.905Z,22.65
2018-09-04T09:10:30.184Z,22.53
2018-09-04T09:12:57.497Z,22.62
2018-09-04T09:15:24.769Z,22.90
2018-09-04T09:17:52.069Z,23.37
2018-09-04T09:20:19.344Z,24.06
2018-09-04T09:22:46.666Z,24.16
2018-09-04T09:25:13.978Z,23.88
2018-09-04T09:27:41.349Z,23.56
2018-09-04T09:30:08.657Z,23.51
2018-09-04T09:32:35.915Z,23.32
2018-09-04T09:35:03.282Z,23.41
2018-09-04T09:37:30.619Z,23.35
2018-09-04T09:39:57.973Z,23.30
2018-09-04T09:42:25.272Z,23.25
2018-09-04T09:44:52.569Z,23.24
2018-09-04T09:47:19.903Z,23.29
2018-09-04T09:49:47.275Z,23.69
2018-09-04T09:52:14.559Z,24.29
2018-09-04T09:54:42.412Z,24.50
2018-09-04T09:57:09.679Z,24.40
2018-09-04T09:59:36.997Z,24.29
2018-09-04T10:02:12.976Z,24.16
2018-09-04T10:04:40.703Z,24.00
2018-09-04T10:07:08.129Z,23.89
2018-09-04T10:09:35.488Z,23.91
2018-09-04T10:12:02.873Z,23.88
2018-09-04T10:14:30.210Z,23.83
2018-09-04T10:16:57.597Z,23.82
2018-09-04T10:19:24.927Z,23.68
2018-09-04T10:21:52.300Z,23.74
2018-09-04T10:24:23.340Z,23.76
2018-09-04T10:26:50.718Z,23.25
2018-09-04T10:29:17.998Z,22.84
2018-09-04T10:31:45.530Z,22.88
2018-09-04T10:34:14.702Z,22.96
2018-09-04T10:36:42.303Z,22.83
2018-09-04T10:40:14.393Z,22.87
2018-09-04T10:42:41.658Z,22.92
2018-09-04T10:45:13.542Z,23.10
2018-09-04T10:47:40.841Z,23.15
2018-09-04T10:50:08.170Z,23.34
2018-09-04T10:52:35.408Z,23.46
2018-09-04T10:55:02.781Z,23.48
2018-09-04T10:57:31.609Z,23.57
2018-09-04T10:59:58.886Z,23.89
2018-09-04T11:02:35.175Z,24.20
2018-09-04T11:05:03.320Z,24.21
2018-09-04T11:07:30.655Z,24.69
2018-09-04T11:09:58.016Z,25.21
2018-09-04T11:12:25.244Z,25.55
2018-09-04T11:14:52.515Z,25.69
2018-09-04T11:17:19.717Z,25.64
2018-09-04T11:19:46.980Z,25.65
2018-09-04T11:22:14.265Z,25.33
2018-09-04T11:24:41.474Z,25.26
2018-09-04T11:27:08.839Z,25.49
2018-09-04T11:29:36.216Z,25.48
2018-09-04T11:32:03.678Z,25.18
2018-09-04T11:34:31.036Z,25.11
2018-09-04T11:36:58.329Z,24.99
2018-09-04T11:39:25.611Z,25.10
2018-09-04T11:41:52.868Z,25.33
2018-09-04T11:44:20.183Z,25.45
2018-09-04T11:46:47.457Z,25.17
2018-09-04T11:49:14.685Z,24.66
2018-09-04T11:51:41.924Z,24.94
2018-09-04T11:54:09.268Z,25.12
2018-09-04T11:56:40.326Z,25.11
2018-09-04T11:59:07.742Z,25.05
2018-09-04T12:01:36.072Z,25.08
2018-09-04T12:04:03.451Z,25.02
2018-09-04T12:06:30.982Z,25.21
2018-09-04T12:08:58.272Z,25.19
2018-09-04T12:11:25.572Z,25.40
2018-09-04T12:13:52.919Z,25.38
2018-09-04T12:16:20.202Z,25.65
2018-09-04T12:18:47.551Z,25.84
2018-09-04T12:21:14.915Z,25.88
2018-09-04T12:23:42.252Z,25.79
2018-09-04T12:26:10.726Z,25.57
2018-09-04T12:28:37.967Z,25.62
2018-09-04T12:31:11.767Z,25.90
2018-09-04T12:33:39.066Z,25.97
2018-09-04T12:36:06.457Z,25.88
2018-09-04T12:38:38.243Z,25.99
2018-09-04T12:41:11.319Z,26.57
2018-09-04T12:43:38.634Z,26.79
2018-09-04T12:46:06.370Z,27.04
2018-09-04T12:48:33.609Z,27.03
2018-09-04T12:51:01.992Z,26.87
2018-09-04T12:53:30.843Z,26.82
2018-09-04T12:55:58.247Z,26.89
2018-09-04T12:58:25.493Z,26.77
2018-09-04T13:00:53.622Z,26.79
2018-09-04T13:03:23.065Z,26.96
2018-09-04T13:05:50.407Z,27.03
2018-09-04T13:08:18.714Z,27.01
2018-09-04T13:10:45.991Z,27.45
2018-09-04T13:13:13.263Z,27.56
2018-09-04T13:15:42.265Z,27.72
2018-09-04T13:18:09.659Z,27.99
2018-09-04T13:20:36.975Z,28.31
2018-09-04T13:23:04.546Z,28.81
2018-09-04T13:25:31.859Z,28.49
2018-09-04T13:27:59.176Z,28.20
2018-09-04T13:30:26.489Z,28.65
2018-09-04T13:32:53.715Z,28.58
2018-09-04T13:35:21.014Z,28.35
2018-09-04T13:37:48.603Z,27.56
2018-09-04T13:40:16.052Z,27.21
2018-09-04T13:42:43.376Z,27.32
2018-09-04T13:45:10.622Z,27.27
2018-09-04T13:47:37.930Z,27.20
2018-09-04T13:50:05.292Z,27.03
2018-09-04T13:52:32.872Z,26.80
2018-09-04T13:55:00.166Z,26.73
2018-09-04T13:57:28.461Z,26.71
2018-09-04T13:59:55.978Z,26.58
2018-09-04T14:02:23.327Z,26.56
2018-09-04T14:04:50.637Z,26.41
2018-09-04T14:07:17.935Z,26.47
2018-09-04T14:09:45.261Z,26.21
2018-09-04T14:12:12.934Z,26.20
2018-09-04T14:14:40.214Z,26.22
2018-09-04T14:17:09.795Z,26.06
2018-09-04T14:19:37.164Z,25.68
2018-09-04T14:22:04.682Z,25.97
2018-09-04T14:24:31.934Z,26.56
2018-09-04T14:26:59.299Z,26.86
2018-09-04T14:30:15.026Z,26.95
2018-09-04T14:31:53.874Z,27.48
2018-09-04T14:34:21.403Z,27.85
2018-09-04T14:36:48.926Z,27.68
2018-09-04T14:39:16.074Z,27.48
2018-09-04T14:41:43.396Z,27.27
2018-09-04T14:44:10.857Z,27.02
2018-09-04T14:46:38.138Z,26.49
2018-09-04T14:49:16.366Z,25.95
2018-09-04T14:51:43.594Z,25.92
2018-09-04T14:54:11.319Z,26.17
2018-09-04T14:56:39.401Z,26.43
2018-09-04T14:59:06.756Z,26.48
2018-09-04T15:01:34.035Z,27.17
2018-09-04T15:04:01.366Z,28.05
2018-09-04T15:06:28.677Z,28.93
2018-09-04T15:08:56.024Z,28.81
2018-09-04T15:11:23.352Z,29.04
2018-09-04T15:13:50.626Z,29.42
2018-09-04T15:16:17.886Z,29.63
2018-09-04T15:18:45.248Z,29.82
2018-09-04T15:21:12.565Z,30.54
2018-09-04T15:23:39.937Z,30.21
2018-09-04T15:26:07.280Z,29.96
2018-09-04T15:28:34.554Z,30.66
2018-09-04T15:31:01.899Z,31.12
2018-09-04T15:33:29.248Z,31.51
2018-09-04T15:35:56.514Z,31.41
2018-09-04T15:38:23.780Z,31.31
2018-09-04T15:40:51.131Z,31.13
2018-09-04T15:43:18.484Z,31.18
2018-09-04T15:45:45.759Z,31.33
2018-09-04T15:48:12.994Z,31.36
2018-09-04T15:50:40.295Z,31.08
2018-09-04T15:53:07.628Z,30.92
2018-09-04T15:55:34.882Z,30.76
2018-09-04T15:58:02.175Z,30.36
2018-09-04T16:00:29.485Z,29.77
2018-09-04T16:02:56.952Z,28.97
2018-09-04T16:05:24.330Z,28.64
2018-09-04T16:07:51.610Z,28.09
2018-09-04T16:10:18.956Z,27.81
2018-09-04T16:12:46.443Z,27.53
2018-09-04T16:15:13.772Z,27.27
2018-09-04T16:17:41.093Z,27.18
2018-09-04T16:20:08.401Z,27.01
2018-09-04T16:22:35.768Z,26.85
2018-09-04T16:25:03.041Z,26.64
2018-09-04T16:27:30.310Z,26.58
2018-09-04T16:29:57.621Z,26.80
2018-09-04T16:32:24.879Z,26.88
2018-09-04T16:34:52.235Z,27.07
2018-09-04T16:37:19.577Z,27.19
2018-09-04T16:39:46.897Z,27.30
2018-09-04T16:45:06.743Z,27.30
2018-09-04T16:47:34.052Z,27.31
2018-09-04T16:50:01.329Z,27.11
2018-09-04T16:52:28.644Z,26.94
2018-09-04T16:54:56.171Z,26.87
2018-09-04T16:57:23.875Z,26.60
2018-09-04T16:59:51.154Z,26.30
2018-09-04T17:02:18.796Z,26.22
2018-09-04T17:04:46.120Z,25.82
2018-09-04T17:07:13.396Z,25.70
2018-09-04T17:09:40.872Z,25.53
2018-09-04T17:12:08.177Z,25.40
2018-09-04T17:14:35.378Z,25.27
2018-09-04T17:18:32.236Z,25.13
2018-09-04T17:20:59.433Z,24.83
2018-09-04T17:23:26.698Z,24.73
2018-09-04T17:25:53.969Z,24.58
2018-09-04T17:28:21.209Z,24.43
2018-09-04T17:30:48.514Z,24.35
2018-09-04T17:33:15.907Z,24.19
2018-09-04T17:35:43.242Z,24.12
2018-09-04T17:38:10.526Z,24.00
2018-09-04T17:40:37.775Z,23.92
2018-09-04T17:43:08.681Z,23.85
2018-09-04T17:45:36.237Z,23.79
2018-09-04T17:48:03.795Z,23.70
2018-09-04T17:50:31.097Z,23.62
2018-09-04T17:52:58.386Z,23.54
2018-09-04T17:55:25.669Z,23.47
2018-09-04T17:57:52.982Z,23.43
2018-09-04T18:00:20.290Z,23.28
2018-09-04T18:02:47.560Z,23.29
2018-09-04T18:05:14.919Z,23.18
2018-09-04T18:07:42.197Z,23.09
2018-09-04T18:10:09.496Z,22.95
2018-09-04T18:12:36.764Z,22.86
2018-09-04T18:15:04.471Z,22.82
2018-09-04T18:17:41.365Z,22.59
2018-09-04T18:20:08.667Z,22.51
2018-09-04T18:22:35.947Z,22.44
2018-09-04T18:25:03.309Z,22.34
2018-09-04T18:27:37.522Z,22.27
2018-09-04T18:30:07.939Z,22.18
2018-09-04T18:32:35.421Z,22.19
2018-09-04T18:35:02.800Z,22.11
2018-09-04T18:37:30.203Z,22.07
2018-09-04T18:39:57.555Z,22.01
2018-09-04T18:42:24.863Z,21.99
2018-09-04T18:44:52.175Z,21.95
2018-09-04T18:47:19.490Z,21.90
2018-09-04T18:49:46.781Z,21.83
2018-09-04T18:52:14.072Z,21.74
2018-09-04T18:54:41.462Z,21.66
2018-09-04T18:57:08.836Z,21.60
2018-09-04T18:59:36.260Z,21.54
2018-09-04T19:02:03.628Z,21.51
2018-09-04T19:04:30.969Z,21.48
2018-09-04T19:06:58.734Z,21.39
2018-09-04T19:09:26.155Z,21.33
2018-09-04T19:11:53.512Z,21.21
2018-09-04T19:14:20.985Z,21.20
2018-09-04T19:16:48.360Z,21.22
2018-09-04T19:19:15.678Z,21.21
2018-09-04T19:21:42.980Z,21.14
2018-09-04T19:24:10.505Z,21.07
2018-09-04T19:26:37.861Z,20.99
2018-09-04T19:29:05.476Z,20.96
2018-09-04T19:31:32.785Z,20.86
2018-09-04T19:34:00.218Z,20.88
2018-09-04T19:36:29.207Z,20.85
2018-09-04T19:38:56.510Z,20.80
2018-09-04T19:41:23.841Z,20.75
2018-09-04T19:43:51.203Z,20.72
2018-09-04T19:46:18.470Z,20.69
2018-09-04T19:48:45.822Z,20.62
2018-09-04T19:51:13.261Z,20.58
2018-09-04T19:53:41.663Z,20.56
2018-09-04T19:56:08.988Z,20.45
2018-09-04T19:58:36.307Z,20.41
2018-09-04T20:01:03.965Z,20.38
2018-09-04T20:03:31.276Z,20.31
2018-09-04T20:06:00.649Z,20.23
2018-09-04T20:08:28.129Z,20.10
2018-09-04T20:10:55.469Z,20.04
2018-09-04T20:13:22.860Z,20.00
2018-09-04T20:15:50.121Z,19.94
2018-09-04T20:18:17.421Z,19.84
2018-09-04T20:20:44.904Z,19.75
2018-09-04T20:23:12.230Z,19.55
2018-09-04T20:25:39.499Z,19.47
2018-09-04T20:28:06.830Z,19.44
2018-09-04T20:30:34.131Z,19.49
2018-09-04T20:40:36.730Z,19.16
2018-09-04T20:43:03.989Z,19.23
2018-09-04T20:45:31.265Z,19.26
2018-09-04T20:47:58.582Z,19.26
2018-09-04T20:50:26.039Z,19.24
2018-09-04T20:52:53.424Z,19.17
2018-09-04T20:55:20.714Z,19.11
2018-09-04T20:57:59.644Z,19.08
2018-09-04T21:00:38.548Z,19.07
2018-09-04T21:03:17.516Z,18.96
2018-09-04T21:05:57.239Z,18.96
2018-09-04T21:08:36.890Z,18.95
2018-09-04T21:11:04.224Z,18.92
2018-09-04T21:13:31.473Z,18.88
2018-09-04T21:15:58.826Z,18.82
2018-09-04T21:18:26.069Z,18.79
2018-09-04T21:20:53.448Z,18.80
2018-09-04T21:23:20.804Z,18.78
2018-09-04T21:25:48.168Z,18.76
2018-09-04T21:28:15.489Z,18.75
2018-09-04T21:30:42.816Z,18.67
2018-09-04T21:33:10.136Z,18.70
2018-09-04T21:35:37.504Z,18.67
2018-09-04T21:38:05.207Z,18.62
2018-09-04T21:40:32.491Z,18.55
2018-09-04T21:42:59.790Z,18.47
2018-09-04T21:45:27.101Z,18.45
2018-09-04T21:47:54.305Z,18.51
2018-09-04T21:50:21.668Z,18.46
2018-09-04T21:52:49.002Z,18.43
2018-09-04T21:55:28.932Z,18.41
2018-09-04T21:57:56.152Z,18.42
2018-09-04T22:00:27.345Z,18.41
2018-09-04T22:02:55.835Z,18.30
2018-09-04T22:05:24.103Z,18.22
2018-09-04T22:07:51.734Z,18.23
2018-09-04T22:10:19.011Z,18.20
2018-09-04T22:12:46.279Z,18.16
2018-09-04T22:15:13.544Z,18.11
2018-09-04T22:17:40.901Z,18.10
2018-09-04T22:20:08.303Z,18.04
2018-09-04T22:22:35.725Z,18.08
2018-09-04T22:25:03.081Z,18.08
2018-09-04T22:27:30.476Z,18.02
2018-09-04T22:29:57.732Z,17.98
2018-09-04T22:32:25.110Z,17.97
2018-09-04T22:34:52.428Z,17.92
2018-09-04T22:37:19.737Z,17.88
2018-09-04T22:39:47.056Z,17.85
2018-09-04T22:42:14.365Z,17.81
2018-09-04T22:44:41.619Z,17.76
2018-09-04T22:47:08.865Z,17.69
2018-09-04T22:49:36.752Z,17.71
2018-09-04T22:52:04.213Z,17.71
2018-09-04T22:54:31.507Z,17.67
2018-09-04T22:56:58.819Z,17.67
2018-09-04T22:59:26.956Z,17.59
2018-09-04T23:01:54.296Z,17.50
2018-09-04T23:04:21.880Z,17.49
2018-09-04T23:06:49.268Z,17.52
2018-09-04T23:09:16.589Z,17.52
2018-09-04T23:11:43.886Z,17.51
2018-09-04T23:14:11.198Z,17.53
2018-09-04T23:16:38.443Z,17.43
2018-09-04T23:19:06.034Z,17.33
2018-09-04T23:21:33.331Z,17.26
2018-09-04T23:24:00.754Z,17.21
2018-09-04T23:26:28.201Z,17.18
2018-09-04T23:28:55.423Z,17.20
2018-09-04T23:31:22.754Z,17.13
2018-09-04T23:33:50.059Z,17.17
2018-09-04T23:36:17.677Z,17.14
2018-09-04T23:38:44.958Z,17.11
2018-09-04T23:41:12.296Z,17.08
2018-09-04T23:43:39.654Z,16.99
2018-09-04T23:46:06.926Z,16.91
2018-09-04T23:48:34.278Z,16.88
2018-09-04T23:51:02.338Z,16.93
2018-09-04T23:53:29.753Z,16.92
2018-09-04T23:55:56.995Z,16.89
2018-09-04T23:58:24.312Z,16.88
